Time;durP1;ratioP1;P1;durP2;ratioP2;P2;SDS_P1;SDS_P2;PMS_P1;PMS_P2;Temp;Humidity;BMP_temperature;BMP_pressure;BME280_temperature;BME280_humidity;BME280_pressure;Samples;Min_cycle;Max_cycle;Signal;HPM_P1;HPM_P2
2020/12/10 00:01:56;;;;;;;45.80;21.27;;;;;;;0.35;74.36;100200.23;1690093;83;21732;-79
2020/12/10 00:04:21;;;;;;;46.50;20.80;;;;;;;0.31;74.54;100194.86;1683798;83;20951;-79
2020/12/10 00:06:47;;;;;;;45.03;21.03;;;;;;;0.39;74.52;100190.95;1689389;83;20935;-79
2020/12/10 00:09:13;;;;;;;46.13;22.17;;;;;;;0.44;74.53;100190.24;1703528;82;20982;-79
2020/12/10 00:11:39;;;;;;;47.60;21.57;;;;;;;0.55;74.38;100182.64;1685692;83;21358;-79
2020/12/10 00:14:05;;;;;;;45.97;20.50;;;;;;;0.62;74.22;100182.66;1693125;83;21128;-81
2020/12/10 00:16:31;;;;;;;47.20;21.65;;;;;;;0.75;74.05;100179.33;1696141;82;21590;-79
2020/12/10 00:18:57;;;;;;;51.00;22.15;;;;;;;0.77;73.74;100164.47;1690123;83;21192;-80
2020/12/10 00:21:23;;;;;;;52.37;23.50;;;;;;;0.76;73.67;100176.61;1702834;82;20951;-81
2020/12/10 00:23:49;;;;;;;47.73;22.37;;;;;;;0.77;73.66;100173.09;1681613;83;21256;-79
2020/12/10 00:26:16;;;;;;;47.47;21.97;;;;;;;0.84;73.47;100176.14;1693901;83;21017;-79
2020/12/10 00:28:42;;;;;;;49.30;23.40;;;;;;;0.82;73.55;100167.61;1690978;82;21680;-79
2020/12/10 00:31:08;;;;;;;47.40;23.30;;;;;;;0.75;73.71;100165.03;1684990;83;21116;-80
2020/12/10 00:33:33;;;;;;;46.27;21.83;;;;;;;0.57;74.12;100159.99;1697223;82;21145;-80
2020/12/10 00:35:59;;;;;;;46.53;21.70;;;;;;;0.65;74.00;100159.09;1697088;82;22219;-80
2020/12/10 00:38:26;;;;;;;46.33;22.03;;;;;;;0.52;74.48;100154.24;1694905;83;21010;-80
2020/12/10 00:40:52;;;;;;;45.75;20.02;;;;;;;0.51;74.60;100151.27;1691340;83;21199;-80
2020/12/10 00:43:18;;;;;;;42.33;18.37;;;;;;;0.30;75.41;100156.81;1690248;83;21224;-80
2020/12/10 00:45:43;;;;;;;37.87;18.07;;;;;;;0.24;75.79;100155.87;1690983;82;21022;-80
2020/12/10 00:48:09;;;;;;;34.27;16.53;;;;;;;0.28;75.93;100146.98;1691635;84;21153;-79
2020/12/10 00:50:35;;;;;;;37.07;17.40;;;;;;;0.23;76.07;100147.70;1687324;83;21617;-79
2020/12/10 00:53:01;;;;;;;41.23;18.27;;;;;;;0.24;76.14;100138.99;1702006;82;21049;-80
2020/12/10 00:55:26;;;;;;;38.30;17.30;;;;;;;0.28;76.11;100132.70;1700261;82;21039;-80
2020/12/10 00:57:52;;;;;;;36.83;17.37;;;;;;;0.32;76.05;100131.58;1697526;82;20940;-81
2020/12/10 01:00:21;;;;;;;41.73;18.47;;;;;;;0.39;75.87;100137.70;1683647;83;21393;-80
2020/12/10 01:02:47;;;;;;;38.88;18.37;;;;;;;0.44;75.68;100127.42;1691371;83;21233;-80
2020/12/10 01:05:12;;;;;;;41.87;19.50;;;;;;;0.42;75.79;100123.23;1687196;83;20959;-80
2020/12/10 01:07:38;;;;;;;40.57;18.33;;;;;;;0.38;75.98;100123.06;1704098;82;23048;-81
2020/12/10 01:10:04;;;;;;;39.03;17.47;;;;;;;0.31;76.28;100116.94;1694053;82;21049;-80
2020/12/10 01:12:30;;;;;;;35.80;17.32;;;;;;;0.31;76.48;100111.74;1683740;83;21953;-80
2020/12/10 01:14:56;;;;;;;37.83;17.43;;;;;;;0.37;76.38;100113.12;1695133;82;21065;-80
2020/12/10 01:17:21;;;;;;;36.27;16.77;;;;;;;0.30;76.73;100117.03;1698782;82;21608;-80
2020/12/10 01:19:47;;;;;;;37.47;16.83;;;;;;;0.25;77.10;100114.70;1698574;82;21144;-79
2020/12/10 01:22:13;;;;;;;39.80;17.53;;;;;;;0.29;77.02;100110.16;1683728;82;21473;-79
2020/12/10 01:24:39;;;;;;;34.20;15.70;;;;;;;0.34;77.07;100105.51;1690241;83;21621;-81
2020/12/10 01:27:04;;;;;;;34.47;16.77;;;;;;;0.41;76.89;100106.00;1679810;84;21647;-79
2020/12/10 01:29:30;;;;;;;34.87;16.43;;;;;;;0.41;76.93;100106.00;1697410;83;21025;-79
2020/12/10 01:31:56;;;;;;;34.20;16.70;;;;;;;0.46;76.90;100096.16;1699429;81;21086;-79
2020/12/10 01:34:22;;;;;;;33.73;16.33;;;;;;;0.45;77.22;100090.58;1702428;82;20939;-79
2020/12/10 01:36:47;;;;;;;29.50;14.63;;;;;;;0.52;77.02;100098.38;1684564;83;21202;-80
2020/12/10 01:39:13;;;;;;;32.93;15.90;;;;;;;0.55;76.99;100096.90;1678715;83;20985;-80
2020/12/10 01:41:39;;;;;;;34.38;15.68;;;;;;;0.56;77.06;100088.19;1704781;82;21695;-79
2020/12/10 01:44:10;;;;;;;30.00;14.40;;;;;;;0.59;77.07;100093.20;1698126;82;21175;-79
2020/12/10 01:46:38;;;;;;;28.05;14.15;;;;;;;0.63;76.99;100089.94;1681476;83;21193;-79
2020/12/10 01:49:05;;;;;;;32.30;15.05;;;;;;;0.64;76.90;100092.91;1691425;83;22477;-79
2020/12/10 01:51:31;;;;;;;30.97;14.50;;;;;;;0.56;77.49;100093.38;1686354;83;21251;-79
2020/12/10 01:53:58;;;;;;;29.87;14.40;;;;;;;0.65;77.21;100091.52;1688701;83;21050;-79
2020/12/10 01:56:24;;;;;;;30.50;13.40;;;;;;;0.65;77.34;100088.06;1692157;82;22500;-79
2020/12/10 01:58:50;;;;;;;30.93;13.53;;;;;;;0.69;77.31;100085.66;1701477;83;21122;-79
2020/12/10 02:01:15;;;;;;;27.27;13.57;;;;;;;0.63;77.76;100085.56;1700723;82;22121;-79
2020/12/10 02:03:41;;;;;;;27.73;13.73;;;;;;;0.67;77.71;100078.44;1694927;83;21077;-79
2020/12/10 02:06:07;;;;;;;28.83;13.43;;;;;;;0.64;77.94;100078.15;1692568;83;20970;-79
2020/12/10 02:08:33;;;;;;;30.23;14.00;;;;;;;0.69;77.93;100072.19;1701481;82;20966;-79
2020/12/10 02:10:58;;;;;;;29.50;13.40;;;;;;;0.76;78.03;100071.81;1694975;82;20941;-79
2020/12/10 02:13:24;;;;;;;27.57;12.67;;;;;;;0.85;78.01;100073.84;1694889;82;21122;-80
2020/12/10 02:15:50;;;;;;;28.87;13.77;;;;;;;0.89;77.68;100063.63;1687722;82;21025;-81
2020/12/10 02:18:16;;;;;;;28.80;13.47;;;;;;;0.85;77.71;100063.45;1691692;83;21057;-77
2020/12/10 02:20:44;;;;;;;26.93;13.27;;;;;;;0.77;78.04;100066.52;1699074;82;21588;-80
2020/12/10 02:23:10;;;;;;;;;;;;;;;0.71;78.35;100062.56;1681107;83;21218;-77
2020/12/10 02:25:37;;;;;;;24.55;12.03;;;;;;;0.67;78.63;100058.47;1693494;82;21226;-78
2020/12/10 02:28:05;;;;;;;30.65;13.38;;;;;;;0.66;78.76;100053.36;1700617;82;21235;-78
2020/12/10 02:30:31;;;;;;;26.57;12.70;;;;;;;0.64;78.76;100050.86;1686337;83;21170;-78
2020/12/10 02:33:02;;;;;;;26.17;12.43;;;;;;;0.64;78.95;100048.27;1702966;82;22128;-79
2020/12/10 02:35:28;;;;;;;28.52;12.78;;;;;;;0.63;79.08;100049.19;1696176;82;22194;-79
2020/12/10 02:37:56;;;;;;;27.75;13.00;;;;;;;0.64;79.14;100042.24;1685696;81;21382;-78
2020/12/10 02:40:23;;;;;;;;;;;;;;;0.60;79.42;100040.28;1699382;83;21735;-79
2020/12/10 02:42:49;;;;;;;28.90;12.78;;;;;;;0.57;79.75;100030.55;1691417;82;20254;-79
2020/12/10 02:45:14;;;;;;;27.32;12.40;;;;;;;0.63;79.45;100033.59;1683350;83;21200;-77
2020/12/10 02:47:40;;;;;;;34.47;14.63;;;;;;;0.51;80.02;100033.05;1681431;83;21370;-79
2020/12/10 02:50:06;;;;;;;31.63;13.97;;;;;;;0.54;80.16;100025.06;1689952;83;21388;-78
2020/12/10 02:52:32;;;;;;;34.93;14.70;;;;;;;0.61;79.73;100022.47;1701238;82;21022;-78
2020/12/10 02:54:57;;;;;;;26.93;12.77;;;;;;;0.50;80.23;100024.43;1701437;82;21009;-78
2020/12/10 02:57:23;;;;;;;33.33;15.23;;;;;;;0.59;80.02;100019.14;1698297;82;21140;-78
2020/12/10 02:59:49;;;;;;;37.73;15.63;;;;;;;0.64;80.20;100014.48;1691756;83;21077;-78
2020/12/10 03:02:15;;;;;;;34.73;16.93;;;;;;;0.57;80.35;100005.39;1691349;81;21892;-78
2020/12/10 03:04:40;;;;;;;37.87;16.67;;;;;;;0.53;80.51;100014.33;1689132;83;21700;-77
2020/12/10 03:07:06;;;;;;;35.90;15.83;;;;;;;0.50;80.67;100002.82;1689275;83;20981;-77
2020/12/10 03:09:32;;;;;;;37.00;16.70;;;;;;;0.46;81.02;100007.83;1696324;82;21127;-77
2020/12/10 03:11:57;;;;;;;41.27;17.97;;;;;;;0.37;81.40;100000.60;1700567;83;21056;-77
2020/12/10 03:14:23;;;;;;;35.47;16.03;;;;;;;0.34;81.40;99994.67;1693253;83;21441;-77
2020/12/10 03:16:49;;;;;;;36.80;16.83;;;;;;;0.31;81.56;99996.16;1693340;83;20939;-78
2020/12/10 03:19:14;;;;;;;38.40;17.33;;;;;;;0.33;81.53;99998.19;1684234;83;20954;-78
2020/12/10 03:21:40;;;;;;;36.67;16.60;;;;;;;0.41;81.36;99990.41;1690593;82;21444;-77
2020/12/10 03:24:06;;;;;;;41.43;17.83;;;;;;;0.38;81.19;99995.78;1698797;83;21125;-78
2020/12/10 03:26:32;;;;;;;37.50;17.13;;;;;;;0.44;80.94;99986.31;1702490;82;21457;-78
2020/12/10 03:28:57;;;;;;;40.80;18.43;;;;;;;0.30;81.34;99984.09;1688961;82;21068;-78
2020/12/10 03:31:23;;;;;;;42.30;19.20;;;;;;;0.35;81.39;99987.70;1684267;83;21120;-78
2020/12/10 03:33:49;;;;;;;42.47;17.57;;;;;;;0.30;81.36;99969.81;1696621;82;22414;-78
2020/12/10 03:36:15;;;;;;;37.50;16.60;;;;;;;0.26;81.20;99980.01;1693127;83;22450;-78
2020/12/10 03:38:40;;;;;;;40.20;17.60;;;;;;;0.24;80.99;99979.75;1694830;83;21627;-77
2020/12/10 03:41:06;;;;;;;42.13;18.53;;;;;;;0.29;81.03;99972.03;1696970;82;21734;-78
2020/12/10 03:43:32;;;;;;;40.87;18.07;;;;;;;0.18;81.46;99980.95;1695583;82;21025;-77
2020/12/10 03:45:58;;;;;;;44.03;19.27;;;;;;;0.18;81.51;99971.86;1690478;83;20967;-78
2020/12/10 03:48:26;;;;;;;42.60;18.80;;;;;;;0.21;81.31;99970.37;1685064;83;22724;-78
2020/12/10 03:50:52;;;;;;;39.38;18.00;;;;;;;0.24;81.16;99967.59;1683334;83;21300;-78
2020/12/10 03:53:17;;;;;;;45.53;19.73;;;;;;;0.18;81.34;99965.38;1684050;83;21140;-80
2020/12/10 03:55:43;;;;;;;46.20;17.90;;;;;;;0.18;81.42;99965.38;1694548;82;21037;-79
2020/12/10 03:58:09;;;;;;;44.20;19.43;;;;;;;0.23;81.10;99959.42;1698146;82;21068;-78
2020/12/10 04:00:34;;;;;;;44.63;17.93;;;;;;;0.22;81.13;99964.27;1696033;82;21040;-78
2020/12/10 04:03:00;;;;;;;41.27;18.63;;;;;;;0.30;81.08;99959.42;1685099;82;22199;-78
2020/12/10 04:05:26;;;;;;;46.50;19.00;;;;;;;0.33;80.66;99959.23;1679887;83;21655;-78
2020/12/10 04:07:52;;;;;;;47.38;18.65;;;;;;;0.34;80.65;99951.82;1671303;82;21593;-79
2020/12/10 04:10:18;;;;;;;37.80;16.80;;;;;;;0.41;80.26;99944.95;1693237;82;23947;-80
2020/12/10 04:12:44;;;;;;;42.97;16.97;;;;;;;0.47;79.79;99947.98;1705172;82;21054;-80
2020/12/10 04:15:09;;;;;;;41.90;18.00;;;;;;;0.54;79.51;99948.42;1693289;82;21025;-80
2020/12/10 04:17:35;;;;;;;41.53;15.57;;;;;;;0.46;79.49;99942.88;1693570;82;20975;-80
2020/12/10 04:20:01;;;;;;;40.77;17.30;;;;;;;0.39;79.60;99948.08;1685592;83;21081;-79
2020/12/10 04:22:26;;;;;;;45.43;18.37;;;;;;;0.34;79.81;99950.52;1686974;82;22460;-79
2020/12/10 04:24:52;;;;;;;43.13;18.30;;;;;;;0.24;80.22;99949.41;1692795;81;21085;-80
2020/12/10 04:27:18;;;;;;;40.87;17.83;;;;;;;0.20;80.35;99944.03;1686245;83;22477;-79
2020/12/10 04:29:44;;;;;;;39.90;16.13;;;;;;;0.31;79.92;99953.75;1683590;83;21733;-79
2020/12/10 04:32:09;;;;;;;37.83;16.17;;;;;;;0.32;79.96;99944.57;1696774;82;20962;-79
2020/12/10 04:34:35;;;;;;;40.20;17.07;;;;;;;0.35;79.87;99944.38;1694583;81;21022;-79
2020/12/10 04:37:01;;;;;;;43.10;17.20;;;;;;;0.37;79.83;99946.06;1691322;83;21314;-80
2020/12/10 04:39:26;;;;;;;41.50;18.00;;;;;;;0.32;80.11;99941.97;1696409;83;21389;-79
2020/12/10 04:41:52;;;;;;;44.10;17.93;;;;;;;0.32;80.04;99951.06;1701848;82;20974;-79
2020/12/10 04:44:18;;;;;;;47.87;19.10;;;;;;;0.28;80.13;99950.91;1694138;82;21057;-79
2020/12/10 04:46:45;;;;;;;46.30;19.17;;;;;;;0.25;80.33;99948.50;1691914;82;20974;-79
2020/12/10 04:49:12;;;;;;;54.93;20.88;;;;;;;0.19;80.49;99948.88;1690356;82;21249;-80
2020/12/10 04:51:37;;;;;;;44.53;19.42;;;;;;;0.22;80.27;99956.47;1696157;83;21255;-79
2020/12/10 04:54:03;;;;;;;51.70;21.93;;;;;;;0.15;80.38;99949.98;1691199;83;21501;-78
2020/12/10 04:56:29;;;;;;;52.53;20.73;;;;;;;0.02;80.42;99947.75;1696024;82;20945;-79
2020/12/10 04:58:55;;;;;;;50.63;20.57;;;;;;;0.05;80.34;99951.02;1683720;83;21057;-78
2020/12/10 05:01:22;;;;;;;46.60;19.85;;;;;;;0.07;80.25;99945.26;1700869;83;21226;-79
2020/12/10 05:03:47;;;;;;;45.25;19.35;;;;;;;0.11;80.24;99947.19;1695845;82;21344;-79
2020/12/10 05:06:14;;;;;;;50.80;21.47;;;;;;;0.09;80.12;99938.67;1698154;84;20977;-79
2020/12/10 05:08:40;;;;;;;54.15;22.20;;;;;;;0.05;80.01;99941.08;1696649;82;21208;-78
2020/12/10 05:11:07;;;;;;;50.08;21.70;;;;;;;0.00;80.10;99938.80;1689093;83;21180;-79
2020/12/10 05:13:33;;;;;;;57.17;22.40;;;;;;;0.01;79.97;99939.14;1684393;83;21677;-79
2020/12/10 05:15:59;;;;;;;55.83;21.03;;;;;;;0.04;79.95;99936.83;1705587;83;21636;-79
2020/12/10 05:18:25;;;;;;;51.97;20.47;;;;;;;-0.01;80.00;99941.01;1687133;83;21022;-79
2020/12/10 05:20:54;;;;;;;54.60;22.50;;;;;;;-0.03;80.07;99940.28;1694390;82;21003;-79
2020/12/10 05:23:35;;;;;;;47.65;19.40;;;;;;;-0.03;80.07;99944.17;1697714;82;21207;-79
2020/12/10 05:26:02;;;;;;;49.35;20.80;;;;;;;0.01;79.89;99941.73;1686186;82;21674;-79
2020/12/10 05:28:44;;;;;;;50.75;19.57;;;;;;;0.01;80.08;99937.02;1698249;83;21189;-79
2020/12/10 05:31:12;;;;;;;49.27;21.10;;;;;;;0.01;79.98;99933.13;1670412;83;21223;-79
2020/12/10 05:34:00;;;;;;;54.58;22.65;;;;;;;0.11;79.81;99932.91;1689361;81;21217;-80
2020/12/10 05:36:30;;;;;;;51.45;21.37;;;;;;;0.20;79.65;99931.52;1692624;83;21169;-79
2020/12/10 05:39:05;;;;;;;50.63;20.85;;;;;;;0.14;79.58;99927.53;1697942;83;21140;-79
2020/12/10 05:41:36;;;;;;;53.45;21.70;;;;;;;0.03;79.93;99924.77;1689664;82;21346;-79
2020/12/10 05:44:24;;;;;;;56.60;21.80;;;;;;;-0.01;80.21;99924.96;1689996;83;21244;-78
2020/12/10 05:47:05;;;;;;;50.83;20.75;;;;;;;-0.02;80.22;99915.52;1695136;82;21662;-79
2020/12/10 05:49:31;;;;;;;54.00;22.15;;;;;;;-0.02;80.25;99915.97;1697549;83;21200;-82
2020/12/10 05:52:03;;;;;;;55.00;22.93;;;;;;;-0.03;80.41;99913.02;1696365;82;21026;-79
2020/12/10 05:54:32;;;;;;;52.62;22.10;;;;;;;0.02;80.36;99912.27;1689239;83;21915;-79
2020/12/10 05:57:00;;;;;;;56.00;21.33;;;;;;;-0.02;80.30;99905.14;1701579;82;21727;-79
2020/12/10 05:59:27;;;;;;;55.40;22.35;;;;;;;0.03;80.21;99907.90;1692099;83;21169;-79
2020/12/10 06:02:00;;;;;;;59.13;24.03;;;;;;;-0.04;80.38;99909.57;1698923;82;21647;-80
2020/12/10 06:04:26;;;;;;;52.67;22.05;;;;;;;0.09;80.06;99917.91;1670973;83;21389;-78
2020/12/10 06:06:51;;;;;;;46.63;19.87;;;;;;;0.24;79.80;99913.53;1690634;82;21480;-79
2020/12/10 06:09:20;;;;;;;57.87;23.53;;;;;;;0.26;79.36;99918.98;1701227;82;21046;-79
2020/12/10 06:11:46;;;;;;;49.48;21.75;;;;;;;0.23;79.26;99917.87;1686296;82;21160;-79
2020/12/10 06:14:11;;;;;;;46.47;19.60;;;;;;;0.03;79.63;99913.09;1674306;81;21056;-79
2020/12/10 06:16:37;;;;;;;50.20;21.10;;;;;;;0.05;79.74;99909.92;1683296;83;21154;-79
2020/12/10 06:19:06;;;;;;;49.83;21.40;;;;;;;0.10;79.72;99906.60;1699974;82;22463;-79
2020/12/10 06:21:38;;;;;;;52.15;21.85;;;;;;;0.06;79.72;99902.52;1694990;82;21135;-79
2020/12/10 06:24:30;;;;;;;47.03;20.30;;;;;;;0.09;79.75;99910.12;1686848;83;21184;-79
2020/12/10 06:26:56;;;;;;;54.50;21.00;;;;;;;0.05;79.90;99907.33;1678312;83;21172;-80
2020/12/10 06:29:31;;;;;;;45.92;20.52;;;;;;;0.11;79.94;99904.35;1685940;82;21229;-79
2020/12/10 06:32:14;;;;;;;50.78;21.77;;;;;;;0.18;79.57;99895.27;1690655;83;21172;-79
2020/12/10 06:34:55;;;;;;;52.67;21.82;;;;;;;0.11;79.82;99903.05;1690066;82;21221;-80
2020/12/10 06:37:29;;;;;;;50.48;21.57;;;;;;;0.15;79.81;99901.95;1691913;82;21191;-82
2020/12/10 06:40:00;;;;;;;56.75;22.82;;;;;;;0.09;79.86;99901.03;1687090;83;21831;-78
2020/12/10 06:42:28;;;;;;;46.90;20.88;;;;;;;0.11;80.00;99897.86;1705615;82;22722;-79
2020/12/10 06:44:54;;;;;;;54.10;22.45;;;;;;;0.09;80.02;99901.03;1699457;82;21298;-78
2020/12/10 06:47:20;;;;;;;47.73;21.50;;;;;;;0.11;79.99;99899.16;1698385;82;21002;-79
2020/12/10 06:49:45;;;;;;;51.90;22.33;;;;;;;0.11;79.96;99901.75;1686171;83;21057;-80
2020/12/10 06:52:20;;;;;;;49.60;20.50;;;;;;;0.09;79.89;99901.03;1692280;82;20977;-79
2020/12/10 06:55:08;;;;;;;45.83;20.95;;;;;;;0.13;79.72;99905.11;1687579;83;21530;-80
2020/12/10 06:58:12;;;;;;;42.55;18.20;;;;;;;0.12;79.87;99900.84;1692769;81;21241;-78
2020/12/10 07:00:47;;;;;;;46.73;19.82;;;;;;;0.13;79.76;99897.33;1699613;83;21212;-79
2020/12/10 07:03:24;;;;;;;49.33;21.55;;;;;;;0.18;79.74;99897.86;1700980;82;21625;-79
2020/12/10 07:05:46;;;;;;;42.55;18.87;;;;;;;0.12;79.86;99906.03;1689872;82;21160;-80
2020/12/10 07:08:12;;;;;;;47.87;21.43;;;;;;;0.23;79.79;99893.20;1677200;82;21047;-77
2020/12/10 07:10:47;;;;;;;47.17;20.72;;;;;;;0.20;79.65;99893.87;1697045;83;21195;-79
2020/12/10 07:13:17;;;;;;;46.33;19.95;;;;;;;0.30;79.47;99894.49;1688956;82;21291;-79
2020/12/10 07:15:49;;;;;;;45.20;19.32;;;;;;;0.35;79.32;99895.03;1682013;83;21177;-81
2020/12/10 07:18:15;;;;;;;50.43;22.17;;;;;;;0.29;79.33;99882.42;1698454;83;21208;-79
2020/12/10 07:20:41;;;;;;;46.70;20.67;;;;;;;0.25;79.37;99887.47;1701411;82;20970;-80
2020/12/10 07:23:06;;;;;;;46.67;20.83;;;;;;;0.24;79.52;99882.38;1695137;82;21125;-76
2020/12/10 07:25:32;;;;;;;45.43;20.70;;;;;;;0.21;79.51;99874.30;1700673;82;20939;-82
2020/12/10 07:27:59;;;;;;;48.33;20.63;;;;;;;0.17;79.41;99880.60;1694270;82;20946;-84
2020/12/10 07:30:27;;;;;;;41.90;19.32;;;;;;;0.21;79.30;99879.49;1696982;82;21192;-83
2020/12/10 07:32:54;;;;;;;46.45;20.52;;;;;;;0.25;79.22;99884.02;1701293;82;21291;-84
2020/12/10 07:35:36;;;;;;;45.45;19.73;;;;;;;0.18;79.21;99871.89;1690959;83;21258;-79
2020/12/10 07:38:13;;;;;;;43.33;19.95;;;;;;;0.10;79.45;99872.84;1698231;83;21637;-80
2020/12/10 07:40:39;;;;;;;42.73;19.10;;;;;;;0.13;79.55;99862.27;1692212;82;21061;-78
2020/12/10 07:43:07;;;;;;;49.88;21.97;;;;;;;0.10;79.75;99859.39;1692460;83;21176;-80
2020/12/10 07:45:33;;;;;;;46.88;20.45;;;;;;;0.05;79.99;99860.60;1698442;82;21200;-81
2020/12/10 07:48:00;;;;;;;48.47;21.90;;;;;;;0.09;79.92;99865.98;1686172;83;21262;-80
2020/12/10 07:50:27;;;;;;;50.65;21.33;;;;;;;0.06;80.00;99860.98;1688609;82;21224;-79
2020/12/10 07:52:56;;;;;;;43.05;19.00;;;;;;;0.08;80.08;99857.81;1694779;82;21136;-78
2020/12/10 07:55:26;;;;;;;41.88;19.67;;;;;;;0.06;79.91;99857.09;1692691;83;21634;-77
2020/12/10 07:58:19;;;;;;;45.90;20.88;;;;;;;0.02;80.13;99860.79;1682330;81;22141;-78
2020/12/10 08:00:46;;;;;;;41.95;19.57;;;;;;;0.21;79.88;99860.02;1690817;83;21283;-77
2020/12/10 08:03:29;;;;;;;39.53;18.67;;;;;;;0.29;79.56;99855.16;1703480;83;21290;-78
2020/12/10 08:06:04;;;;;;;37.83;17.40;;;;;;;0.43;79.09;99860.77;1705912;82;21457;-77
2020/12/10 08:08:32;;;;;;;36.03;16.95;;;;;;;0.31;78.94;99851.17;1699427;82;21236;-78
2020/12/10 08:11:11;;;;;;;37.20;16.65;;;;;;;0.30;78.92;99855.53;1696138;83;21529;-77
2020/12/10 08:13:37;;;;;;;34.58;17.07;;;;;;;0.37;78.97;99857.75;1687698;83;21192;-78
2020/12/10 08:16:07;;;;;;;34.17;16.40;;;;;;;0.26;79.27;99857.95;1689369;83;21269;-77
2020/12/10 08:18:33;;;;;;;38.17;17.92;;;;;;;0.29;79.21;99865.55;1695135;83;21200;-76
2020/12/10 08:21:00;;;;;;;36.00;16.27;;;;;;;0.25;79.49;99861.94;1679349;83;21466;-77
2020/12/10 08:23:26;;;;;;;35.85;16.15;;;;;;;0.20;79.51;99864.01;1693560;82;21286;-76
2020/12/10 08:26:13;;;;;;;31.13;14.87;;;;;;;0.28;79.56;99866.94;1693627;82;21581;-76
2020/12/10 08:28:41;;;;;;;29.05;14.55;;;;;;;0.35;79.32;99863.03;1694075;83;21140;-78
2020/12/10 08:31:07;;;;;;;31.50;14.35;;;;;;;0.40;79.26;99860.97;1687632;82;21193;-77
2020/12/10 08:33:36;;;;;;;27.73;14.20;;;;;;;0.29;79.02;99848.67;1690588;83;21216;-76
2020/12/10 08:36:02;;;;;;;31.05;15.13;;;;;;;0.32;79.33;99854.97;1687822;83;21368;-76
2020/12/10 08:38:27;;;;;;;30.23;14.37;;;;;;;0.32;79.33;99854.97;1699747;83;21229;-76
2020/12/10 08:40:59;;;;;;;33.47;15.30;;;;;;;0.39;79.35;99853.27;1688534;81;20927;-76
2020/12/10 08:43:25;;;;;;;29.50;14.38;;;;;;;0.40;79.45;99845.86;1696899;82;21191;-76
2020/12/10 08:45:51;;;;;;;30.85;14.30;;;;;;;0.39;79.61;99842.89;1692958;82;21192;-76
2020/12/10 08:48:28;;;;;;;31.23;14.67;;;;;;;0.33;79.89;99844.13;1698750;83;21028;-76
2020/12/10 08:50:58;;;;;;;28.23;13.40;;;;;;;0.38;79.93;99842.06;1693165;83;21914;-76
2020/12/10 08:53:24;;;;;;;29.95;15.03;;;;;;;0.37;80.32;99842.16;1689165;83;21736;-77
2020/12/10 08:55:54;;;;;;;28.17;14.13;;;;;;;0.34;80.06;99817.20;1699763;82;20973;-77
2020/12/10 08:58:28;;;;;;;29.55;14.63;;;;;;;0.44;80.33;99833.05;1687861;82;21184;-76
2020/12/10 09:00:55;;;;;;;27.32;13.18;;;;;;;0.49;80.33;99833.58;1701001;82;21137;-77
2020/12/10 09:03:32;;;;;;;26.45;12.93;;;;;;;0.47;80.53;99834.98;1700617;82;21203;-77
2020/12/10 09:05:58;;;;;;;26.05;12.70;;;;;;;0.56;80.44;99830.96;1699975;82;21271;-75
2020/12/10 09:08:24;;;;;;;28.33;14.30;;;;;;;0.63;80.32;99828.31;1688729;82;20994;-75
2020/12/10 09:10:50;;;;;;;28.90;13.90;;;;;;;0.69;80.47;99827.91;1697183;82;22983;-74
2020/12/10 09:13:15;;;;;;;25.27;13.57;;;;;;;0.73;80.52;99825.95;1681301;82;20973;-76
2020/12/10 09:15:42;;;;;;;31.10;14.37;;;;;;;0.78;80.50;99825.63;1690339;82;21181;-76
2020/12/10 09:18:08;;;;;;;26.85;14.03;;;;;;;0.80;80.83;99825.08;1681414;82;21593;-76
2020/12/10 09:20:34;;;;;;;30.27;14.63;;;;;;;0.82;80.84;99822.72;1679975;82;20937;-77
2020/12/10 09:22:59;;;;;;;28.53;13.40;;;;;;;0.81;81.16;99817.63;1683887;82;21013;-77
2020/12/10 09:25:25;;;;;;;29.20;14.67;;;;;;;0.90;81.06;99819.61;1678507;82;21170;-76
2020/12/10 09:27:51;;;;;;;31.17;14.77;;;;;;;0.93;81.15;99816.81;1700337;82;21113;-77
2020/12/10 09:30:17;;;;;;;32.73;15.73;;;;;;;1.01;81.47;99819.75;1703758;81;21060;-77
2020/12/10 09:32:43;;;;;;;32.97;16.10;;;;;;;1.01;81.75;99814.55;1685209;82;21017;-77
2020/12/10 09:35:11;;;;;;;36.00;16.27;;;;;;;1.00;82.30;99810.27;1699874;82;21022;-77
2020/12/10 09:37:39;;;;;;;32.78;16.17;;;;;;;0.93;82.65;99809.01;1689814;82;21780;-78
2020/12/10 09:40:07;;;;;;;34.40;17.17;;;;;;;0.90;82.50;99788.42;1704251;82;22044;-78
2020/12/10 09:42:42;;;;;;;36.48;17.62;;;;;;;0.99;82.75;99806.00;1689472;82;21195;-77
2020/12/10 09:45:08;;;;;;;40.43;17.80;;;;;;;0.95;83.04;99803.70;1693984;82;21870;-79
2020/12/10 09:47:34;;;;;;;35.80;17.60;;;;;;;0.91;83.40;99797.07;1691904;82;21018;-78
2020/12/10 09:50:01;;;;;;;41.30;18.70;;;;;;;0.98;83.19;99796.55;1700869;82;21838;-80
2020/12/10 09:52:27;;;;;;;40.25;17.32;;;;;;;1.03;83.19;99789.75;1684884;82;22050;-80
2020/12/10 09:55:08;;;;;;;42.60;19.82;;;;;;;0.99;83.46;99789.09;1697765;82;21148;-81
2020/12/10 09:57:32;;;;;;;41.68;18.57;;;;;;;0.97;83.83;99780.58;1660701;83;21231;-78
2020/12/10 09:59:59;;;;;;;45.12;20.15;;;;;;;0.97;83.83;99780.58;1702083;82;21627;-81
2020/12/10 10:02:25;;;;;;;41.20;18.87;;;;;;;1.02;83.82;99775.89;1687829;83;21132;-83
2020/12/10 10:04:51;;;;;;;41.40;20.13;;;;;;;1.11;83.77;99773.14;1701719;82;21193;-80
2020/12/10 10:07:17;;;;;;;49.30;20.87;;;;;;;1.07;83.72;99772.98;1697740;82;20975;-79
2020/12/10 10:09:43;;;;;;;44.85;20.20;;;;;;;1.10;83.80;99770.65;1692682;82;21129;-79
2020/12/10 10:12:10;;;;;;;47.30;21.15;;;;;;;0.97;84.21;99763.68;1702004;82;21235;-80
2020/12/10 10:14:39;;;;;;;47.50;20.70;;;;;;;0.93;84.39;99759.61;1704589;82;21257;-80
2020/12/10 10:17:07;;;;;;;48.52;21.82;;;;;;;0.94;84.16;99739.19;1701665;82;21316;-80
2020/12/10 10:19:33;;;;;;;56.50;22.75;;;;;;;0.91;84.40;99760.20;1701077;82;21220;-81
2020/12/10 10:21:59;;;;;;;48.73;21.20;;;;;;;0.83;84.88;99754.70;1699899;82;20979;-77
2020/12/10 10:24:25;;;;;;;55.67;23.50;;;;;;;0.85;84.82;99759.31;1702030;82;24067;-82
2020/12/10 10:26:51;;;;;;;52.90;21.80;;;;;;;0.82;85.05;99751.72;1697513;82;21681;-76
2020/12/10 10:29:21;;;;;;;54.18;22.80;;;;;;;0.84;84.81;99742.89;1704703;81;21221;-77
2020/12/10 10:31:49;;;;;;;54.95;22.02;;;;;;;0.84;84.98;99740.74;1702015;81;21715;-76
2020/12/10 10:34:16;;;;;;;60.65;24.27;;;;;;;0.85;84.44;99716.42;1694802;82;22098;-79
2020/12/10 10:36:41;;;;;;;57.90;24.12;;;;;;;1.03;84.44;99732.55;1690136;81;21212;-75
2020/12/10 10:39:12;;;;;;;57.50;22.93;;;;;;;1.05;84.33;99731.48;1690148;82;23055;-79
2020/12/10 10:41:42;;;;;;;51.53;22.58;;;;;;;1.05;84.29;99728.88;1709078;82;21279;-78
2020/12/10 10:44:08;;;;;;;54.03;23.20;;;;;;;1.12;84.18;99720.66;1686404;82;21224;-78
2020/12/10 10:46:34;;;;;;;52.50;22.17;;;;;;;0.99;84.21;99698.58;1713085;81;21625;-78
2020/12/10 10:48:59;;;;;;;54.07;23.57;;;;;;;1.03;84.25;99713.04;1695889;82;22845;-79
2020/12/10 10:51:26;;;;;;;58.67;24.37;;;;;;;1.04;84.39;99707.73;1700565;82;22327;-79
2020/12/10 10:53:52;;;;;;;61.80;25.73;;;;;;;0.96;84.70;99704.81;1690165;82;21747;-78
2020/12/10 10:56:24;;;;;;;62.90;25.10;;;;;;;0.84;85.30;99703.05;1681484;82;20970;-77
2020/12/10 10:58:50;;;;;;;57.20;23.52;;;;;;;0.88;85.18;99705.81;1704122;82;21461;-79
2020/12/10 11:01:16;;;;;;;57.67;23.87;;;;;;;0.82;85.36;99702.34;1704988;82;22495;-77
2020/12/10 11:03:42;;;;;;;59.53;24.63;;;;;;;0.88;85.28;99704.52;1704350;82;21223;-82
2020/12/10 11:06:15;;;;;;;57.93;23.97;;;;;;;0.92;84.98;99699.48;1705125;82;21203;-79
2020/12/10 11:08:41;;;;;;;58.25;24.25;;;;;;;0.82;85.51;99702.34;1703667;82;21010;-79
2020/12/10 11:11:06;;;;;;;62.87;24.33;;;;;;;0.85;85.39;99698.23;1710986;82;21754;-78
2020/12/10 11:13:41;;;;;;;62.70;25.07;;;;;;;0.93;85.21;99693.33;1700227;82;21948;-79
2020/12/10 11:16:07;;;;;;;57.35;23.35;;;;;;;0.91;85.22;99699.11;1699187;82;21219;-78
2020/12/10 11:18:33;;;;;;;64.47;24.87;;;;;;;0.83;85.22;99696.21;1705663;82;21853;-78
2020/12/10 11:20:59;;;;;;;59.20;25.00;;;;;;;0.75;85.76;99699.81;1698213;82;21000;-77
2020/12/10 11:23:25;;;;;;;63.23;25.23;;;;;;;0.81;85.64;99691.12;1697429;81;20989;-78
2020/12/10 11:25:50;;;;;;;66.33;25.00;;;;;;;0.84;85.55;99697.41;1704626;82;24023;-80
2020/12/10 11:28:16;;;;;;;62.67;24.87;;;;;;;0.83;85.70;99693.61;1705026;82;23454;-79